sensor_id;sensor_type;location;lat;lon;timestamp;P1;durP1;ratioP1;P2;durP2;ratioP2
81510;SDS011;70931;48.796;8.440;2024-01-10T00:01:43;14.27;;;6.07;;
81510;SDS011;70931;48.796;8.440;2024-01-10T00:04:09;12.02;;;6.25;;
81510;SDS011;70931;48.796;8.440;2024-01-10T00:06:34;13.05;;;6.68;;
81510;SDS011;70931;48.796;8.440;2024-01-10T00:09:00;12.20;;;6.70;;
81510;SDS011;70931;48.796;8.440;2024-01-10T00:11:25;14.82;;;6.28;;
81510;SDS011;70931;48.796;8.440;2024-01-10T00:13:51;16.77;;;7.63;;
81510;SDS011;70931;48.796;8.440;2024-01-10T00:16:19;17.17;;;7.25;;
81510;SDS011;70931;48.796;8.440;2024-01-10T00:18:45;14.93;;;7.20;;
81510;SDS011;70931;48.796;8.440;2024-01-10T00:21:13;16.67;;;7.90;;
81510;SDS011;70931;48.796;8.440;2024-01-10T00:23:39;13.98;;;6.35;;
81510;SDS011;70931;48.796;8.440;2024-01-10T00:26:04;15.38;;;7.20;;
81510;SDS011;70931;48.796;8.440;2024-01-10T00:28:29;16.30;;;6.80;;
81510;SDS011;70931;48.796;8.440;2024-01-10T00:30:57;13.32;;;6.13;;
81510;SDS011;70931;48.796;8.440;2024-01-10T00:33:23;15.32;;;7.32;;
81510;SDS011;70931;48.796;8.440;2024-01-10T00:35:48;13.95;;;6.80;;
81510;SDS011;70931;48.796;8.440;2024-01-10T00:38:14;15.67;;;6.60;;
81510;SDS011;70931;48.796;8.440;2024-01-10T00:40:39;14.03;;;6.93;;
81510;SDS011;70931;48.796;8.440;2024-01-10T00:43:04;14.13;;;6.50;;
81510;SDS011;70931;48.796;8.440;2024-01-10T00:45:30;13.10;;;6.25;;
81510;SDS011;70931;48.796;8.440;2024-01-10T00:47:55;13.77;;;6.20;;
81510;SDS011;70931;48.796;8.440;2024-01-10T00:50:21;11.73;;;5.78;;
81510;SDS011;70931;48.796;8.440;2024-01-10T00:52:47;11.50;;;6.07;;
81510;SDS011;70931;48.796;8.440;2024-01-10T00:55:24;13.15;;;6.30;;
81510;SDS011;70931;48.796;8.440;2024-01-10T00:57:54;16.40;;;6.22;;
81510;SDS011;70931;48.796;8.440;2024-01-10T01:00:20;12.47;;;5.83;;
81510;SDS011;70931;48.796;8.440;2024-01-10T01:02:45;12.30;;;5.43;;
81510;SDS011;70931;48.796;8.440;2024-01-10T01:05:11;12.05;;;5.63;;
81510;SDS011;70931;48.796;8.440;2024-01-10T01:07:39;15.93;;;6.60;;
81510;SDS011;70931;48.796;8.440;2024-01-10T01:10:05;13.93;;;6.85;;
81510;SDS011;70931;48.796;8.440;2024-01-10T01:12:30;14.27;;;6.00;;
81510;SDS011;70931;48.796;8.440;2024-01-10T01:14:56;14.57;;;6.50;;
81510;SDS011;70931;48.796;8.440;2024-01-10T01:17:21;14.83;;;6.40;;
81510;SDS011;70931;48.796;8.440;2024-01-10T01:19:46;13.83;;;6.57;;
81510;SDS011;70931;48.796;8.440;2024-01-10T01:22:12;15.10;;;6.43;;
81510;SDS011;70931;48.796;8.440;2024-01-10T01:24:37;13.80;;;6.07;;
81510;SDS011;70931;48.796;8.440;2024-01-10T01:27:03;13.40;;;6.33;;
81510;SDS011;70931;48.796;8.440;2024-01-10T01:29:28;13.88;;;6.00;;
81510;SDS011;70931;48.796;8.440;2024-01-10T01:31:54;13.27;;;6.13;;
81510;SDS011;70931;48.796;8.440;2024-01-10T01:34:19;16.17;;;6.43;;
81510;SDS011;70931;48.796;8.440;2024-01-10T01:36:44;15.07;;;5.82;;
81510;SDS011;70931;48.796;8.440;2024-01-10T01:39:10;14.67;;;6.83;;
81510;SDS011;70931;48.796;8.440;2024-01-10T01:41:35;14.30;;;5.47;;
81510;SDS011;70931;48.796;8.440;2024-01-10T01:44:00;13.57;;;5.90;;
81510;SDS011;70931;48.796;8.440;2024-01-10T01:46:26;15.05;;;6.25;;
81510;SDS011;70931;48.796;8.440;2024-01-10T01:48:52;11.98;;;5.65;;
81510;SDS011;70931;48.796;8.440;2024-01-10T01:51:18;15.23;;;6.32;;
81510;SDS011;70931;48.796;8.440;2024-01-10T01:53:46;10.68;;;4.78;;
81510;SDS011;70931;48.796;8.440;2024-01-10T01:56:13;10.10;;;5.03;;
81510;SDS011;70931;48.796;8.440;2024-01-10T01:58:39;17.00;;;6.50;;
81510;SDS011;70931;48.796;8.440;2024-01-10T02:03:40;15.00;;;6.03;;
81510;SDS011;70931;48.796;8.440;2024-01-10T02:06:09;14.48;;;5.75;;
81510;SDS011;70931;48.796;8.440;2024-01-10T02:08:34;15.83;;;6.90;;
81510;SDS011;70931;48.796;8.440;2024-01-10T02:11:01;13.82;;;6.68;;
81510;SDS011;70931;48.796;8.440;2024-01-10T02:13:27;11.48;;;5.05;;
81510;SDS011;70931;48.796;8.440;2024-01-10T02:15:53;15.18;;;6.00;;
81510;SDS011;70931;48.796;8.440;2024-01-10T02:18:19;14.85;;;6.03;;
81510;SDS011;70931;48.796;8.440;2024-01-10T02:20:45;14.30;;;5.97;;
81510;SDS011;70931;48.796;8.440;2024-01-10T02:23:10;14.83;;;5.80;;
81510;SDS011;70931;48.796;8.440;2024-01-10T02:25:37;15.52;;;6.72;;
81510;SDS011;70931;48.796;8.440;2024-01-10T02:28:03;14.90;;;7.03;;
81510;SDS011;70931;48.796;8.440;2024-01-10T02:30:31;12.50;;;6.32;;
81510;SDS011;70931;48.796;8.440;2024-01-10T02:33:00;14.32;;;6.22;;
81510;SDS011;70931;48.796;8.440;2024-01-10T02:35:25;15.45;;;6.45;;
81510;SDS011;70931;48.796;8.440;2024-01-10T02:37:51;13.57;;;6.77;;
81510;SDS011;70931;48.796;8.440;2024-01-10T02:40:16;15.93;;;7.43;;
81510;SDS011;70931;48.796;8.440;2024-01-10T02:42:42;12.70;;;6.20;;
81510;SDS011;70931;48.796;8.440;2024-01-10T02:45:10;13.88;;;7.40;;
81510;SDS011;70931;48.796;8.440;2024-01-10T02:47:41;17.58;;;7.07;;
81510;SDS011;70931;48.796;8.440;2024-01-10T02:50:07;13.23;;;6.30;;
81510;SDS011;70931;48.796;8.440;2024-01-10T02:52:36;17.77;;;6.57;;
81510;SDS011;70931;48.796;8.440;2024-01-10T02:55:01;17.67;;;6.43;;
81510;SDS011;70931;48.796;8.440;2024-01-10T02:57:27;17.03;;;6.53;;
81510;SDS011;70931;48.796;8.440;2024-01-10T02:59:52;11.77;;;5.55;;
81510;SDS011;70931;48.796;8.440;2024-01-10T03:02:17;14.97;;;5.83;;
81510;SDS011;70931;48.796;8.440;2024-01-10T03:04:43;15.50;;;7.00;;
81510;SDS011;70931;48.796;8.440;2024-01-10T03:07:08;14.35;;;6.05;;
81510;SDS011;70931;48.796;8.440;2024-01-10T03:09:37;13.23;;;6.28;;
81510;SDS011;70931;48.796;8.440;2024-01-10T03:12:02;14.82;;;7.10;;
81510;SDS011;70931;48.796;8.440;2024-01-10T03:14:28;14.77;;;6.88;;
81510;SDS011;70931;48.796;8.440;2024-01-10T03:16:54;15.77;;;6.43;;
81510;SDS011;70931;48.796;8.440;2024-01-10T03:19:26;15.05;;;6.72;;
81510;SDS011;70931;48.796;8.440;2024-01-10T03:21:52;13.88;;;6.40;;
81510;SDS011;70931;48.796;8.440;2024-01-10T03:24:18;14.35;;;6.97;;
81510;SDS011;70931;48.796;8.440;2024-01-10T03:26:43;16.30;;;7.07;;
81510;SDS011;70931;48.796;8.440;2024-01-10T03:29:08;13.77;;;6.38;;
81510;SDS011;70931;48.796;8.440;2024-01-10T03:31:33;18.07;;;7.30;;
81510;SDS011;70931;48.796;8.440;2024-01-10T03:33:59;17.57;;;8.53;;
81510;SDS011;70931;48.796;8.440;2024-01-10T03:36:24;17.00;;;6.67;;
81510;SDS011;70931;48.796;8.440;2024-01-10T03:38:50;13.18;;;6.30;;
81510;SDS011;70931;48.796;8.440;2024-01-10T03:41:19;15.70;;;7.22;;
81510;SDS011;70931;48.796;8.440;2024-01-10T03:43:45;14.88;;;6.82;;
81510;SDS011;70931;48.796;8.440;2024-01-10T03:46:11;16.15;;;7.13;;
81510;SDS011;70931;48.796;8.440;2024-01-10T03:48:38;16.80;;;7.60;;
81510;SDS011;70931;48.796;8.440;2024-01-10T03:51:03;16.48;;;7.75;;
81510;SDS011;70931;48.796;8.440;2024-01-10T03:55:57;15.45;;;7.07;;
81510;SDS011;70931;48.796;8.440;2024-01-10T03:58:23;19.93;;;7.70;;
81510;SDS011;70931;48.796;8.440;2024-01-10T04:00:48;17.38;;;8.18;;
81510;SDS011;70931;48.796;8.440;2024-01-10T04:03:14;16.85;;;6.93;;
81510;SDS011;70931;48.796;8.440;2024-01-10T04:05:40;17.50;;;7.90;;
81510;SDS011;70931;48.796;8.440;2024-01-10T04:08:06;18.05;;;7.30;;
81510;SDS011;70931;48.796;8.440;2024-01-10T04:10:32;16.90;;;7.20;;
81510;SDS011;70931;48.796;8.440;2024-01-10T04:12:57;20.90;;;7.78;;
81510;SDS011;70931;48.796;8.440;2024-01-10T04:15:23;17.42;;;7.57;;
81510;SDS011;70931;48.796;8.440;2024-01-10T04:17:48;19.15;;;7.93;;
81510;SDS011;70931;48.796;8.440;2024-01-10T04:20:16;14.50;;;7.00;;
81510;SDS011;70931;48.796;8.440;2024-01-10T04:22:42;14.17;;;6.87;;
81510;SDS011;70931;48.796;8.440;2024-01-10T04:25:07;16.83;;;7.03;;
81510;SDS011;70931;48.796;8.440;2024-01-10T04:27:33;17.35;;;7.97;;
81510;SDS011;70931;48.796;8.440;2024-01-10T04:29:58;17.73;;;7.68;;
81510;SDS011;70931;48.796;8.440;2024-01-10T04:32:26;16.20;;;7.90;;
81510;SDS011;70931;48.796;8.440;2024-01-10T04:34:51;15.37;;;6.80;;
81510;SDS011;70931;48.796;8.440;2024-01-10T04:37:17;16.97;;;7.17;;
81510;SDS011;70931;48.796;8.440;2024-01-10T04:39:43;15.63;;;7.38;;
81510;SDS011;70931;48.796;8.440;2024-01-10T04:42:10;17.98;;;7.63;;
81510;SDS011;70931;48.796;8.440;2024-01-10T04:44:35;16.65;;;7.25;;
81510;SDS011;70931;48.796;8.440;2024-01-10T04:47:01;15.38;;;7.60;;
81510;SDS011;70931;48.796;8.440;2024-01-10T04:49:27;15.75;;;7.55;;
81510;SDS011;70931;48.796;8.440;2024-01-10T04:51:52;16.25;;;7.53;;
81510;SDS011;70931;48.796;8.440;2024-01-10T04:54:17;16.97;;;7.67;;
81510;SDS011;70931;48.796;8.440;2024-01-10T04:56:45;19.95;;;7.43;;
81510;SDS011;70931;48.796;8.440;2024-01-10T04:59:11;17.27;;;8.95;;
81510;SDS011;70931;48.796;8.440;2024-01-10T05:01:36;18.35;;;7.55;;
81510;SDS011;70931;48.796;8.440;2024-01-10T05:04:05;15.13;;;7.80;;
81510;SDS011;70931;48.796;8.440;2024-01-10T05:06:30;17.55;;;7.47;;
81510;SDS011;70931;48.796;8.440;2024-01-10T05:08:56;16.13;;;7.00;;
81510;SDS011;70931;48.796;8.440;2024-01-10T05:11:21;12.95;;;6.65;;
81510;SDS011;70931;48.796;8.440;2024-01-10T05:13:46;19.77;;;9.10;;
81510;SDS011;70931;48.796;8.440;2024-01-10T05:16:12;18.40;;;7.65;;
81510;SDS011;70931;48.796;8.440;2024-01-10T05:18:37;14.35;;;6.75;;
81510;SDS011;70931;48.796;8.440;2024-01-10T05:21:03;18.05;;;8.15;;
81510;SDS011;70931;48.796;8.440;2024-01-10T05:23:29;18.77;;;7.90;;
81510;SDS011;70931;48.796;8.440;2024-01-10T05:25:54;19.25;;;7.88;;
81510;SDS011;70931;48.796;8.440;2024-01-10T05:28:20;16.52;;;7.68;;
81510;SDS011;70931;48.796;8.440;2024-01-10T05:30:45;16.40;;;7.97;;
81510;SDS011;70931;48.796;8.440;2024-01-10T05:33:11;15.65;;;6.78;;
81510;SDS011;70931;48.796;8.440;2024-01-10T05:35:39;15.93;;;7.83;;
81510;SDS011;70931;48.796;8.440;2024-01-10T05:38:05;14.40;;;7.05;;
81510;SDS011;70931;48.796;8.440;2024-01-10T05:40:32;18.13;;;6.95;;
81510;SDS011;70931;48.796;8.440;2024-01-10T05:43:00;15.32;;;7.45;;
81510;SDS011;70931;48.796;8.440;2024-01-10T05:45:26;14.57;;;7.10;;
81510;SDS011;70931;48.796;8.440;2024-01-10T05:47:52;13.98;;;6.85;;
81510;SDS011;70931;48.796;8.440;2024-01-10T05:50:17;12.77;;;6.60;;
81510;SDS011;70931;48.796;8.440;2024-01-10T05:52:43;17.60;;;7.30;;
81510;SDS011;70931;48.796;8.440;2024-01-10T05:55:09;15.02;;;7.43;;
81510;SDS011;70931;48.796;8.440;2024-01-10T05:57:37;14.98;;;7.80;;
81510;SDS011;70931;48.796;8.440;2024-01-10T06:00:03;16.97;;;6.93;;
81510;SDS011;70931;48.796;8.440;2024-01-10T06:02:29;14.50;;;7.00;;
81510;SDS011;70931;48.796;8.440;2024-01-10T06:04:54;16.63;;;7.50;;
81510;SDS011;70931;48.796;8.440;2024-01-10T06:07:20;15.80;;;7.37;;
81510;SDS011;70931;48.796;8.440;2024-01-10T06:09:45;15.87;;;7.47;;
81510;SDS011;70931;48.796;8.440;2024-01-10T06:12:10;14.67;;;6.80;;
81510;SDS011;70931;48.796;8.440;2024-01-10T06:14:35;19.73;;;8.13;;
81510;SDS011;70931;48.796;8.440;2024-01-10T06:17:00;17.90;;;7.67;;
81510;SDS011;70931;48.796;8.440;2024-01-10T06:19:26;16.20;;;8.45;;
81510;SDS011;70931;48.796;8.440;2024-01-10T06:21:51;17.07;;;7.17;;
81510;SDS011;70931;48.796;8.440;2024-01-10T06:24:16;14.63;;;6.77;;
81510;SDS011;70931;48.796;8.440;2024-01-10T06:26:42;15.30;;;7.37;;
81510;SDS011;70931;48.796;8.440;2024-01-10T06:29:07;15.83;;;7.13;;
81510;SDS011;70931;48.796;8.440;2024-01-10T06:31:32;15.37;;;6.47;;
81510;SDS011;70931;48.796;8.440;2024-01-10T06:33:57;16.83;;;7.37;;
81510;SDS011;70931;48.796;8.440;2024-01-10T06:36:22;15.60;;;7.67;;
81510;SDS011;70931;48.796;8.440;2024-01-10T06:38:48;16.17;;;7.13;;
81510;SDS011;70931;48.796;8.440;2024-01-10T06:41:13;16.27;;;7.03;;
81510;SDS011;70931;48.796;8.440;2024-01-10T06:43:38;15.37;;;6.70;;
81510;SDS011;70931;48.796;8.440;2024-01-10T06:46:03;15.20;;;7.03;;
81510;SDS011;70931;48.796;8.440;2024-01-10T06:48:29;14.38;;;6.43;;
81510;SDS011;70931;48.796;8.440;2024-01-10T06:50:54;13.68;;;6.18;;
81510;SDS011;70931;48.796;8.440;2024-01-10T06:53:20;15.73;;;6.93;;
81510;SDS011;70931;48.796;8.440;2024-01-10T06:55:45;14.43;;;7.43;;
81510;SDS011;70931;48.796;8.440;2024-01-10T06:58:10;19.97;;;8.00;;
81510;SDS011;70931;48.796;8.440;2024-01-10T07:00:36;13.27;;;6.53;;
81510;SDS011;70931;48.796;8.440;2024-01-10T07:03:01;18.43;;;6.90;;
81510;SDS011;70931;48.796;8.440;2024-01-10T07:05:26;16.88;;;8.40;;
81510;SDS011;70931;48.796;8.440;2024-01-10T07:07:52;13.80;;;6.30;;
81510;SDS011;70931;48.796;8.440;2024-01-10T07:10:17;19.97;;;7.23;;
81510;SDS011;70931;48.796;8.440;2024-01-10T07:12:42;14.53;;;7.33;;
81510;SDS011;70931;48.796;8.440;2024-01-10T07:15:07;15.37;;;7.23;;
81510;SDS011;70931;48.796;8.440;2024-01-10T07:17:33;14.57;;;6.65;;
81510;SDS011;70931;48.796;8.440;2024-01-10T07:19:58;12.83;;;6.13;;
81510;SDS011;70931;48.796;8.440;2024-01-10T07:22:23;12.87;;;6.80;;
81510;SDS011;70931;48.796;8.440;2024-01-10T07:24:49;18.30;;;7.10;;
81510;SDS011;70931;48.796;8.440;2024-01-10T07:27:14;16.02;;;7.53;;
81510;SDS011;70931;48.796;8.440;2024-01-10T07:29:40;15.93;;;5.90;;
81510;SDS011;70931;48.796;8.440;2024-01-10T07:32:06;13.07;;;6.53;;
81510;SDS011;70931;48.796;8.440;2024-01-10T07:34:31;12.88;;;6.22;;
81510;SDS011;70931;48.796;8.440;2024-01-10T07:36:57;14.20;;;6.60;;
81510;SDS011;70931;48.796;8.440;2024-01-10T07:39:22;16.13;;;6.63;;
81510;SDS011;70931;48.796;8.440;2024-01-10T07:41:47;15.77;;;7.57;;
81510;SDS011;70931;48.796;8.440;2024-01-10T07:44:12;16.30;;;6.87;;
81510;SDS011;70931;48.796;8.440;2024-01-10T07:46:38;13.30;;;5.83;;
81510;SDS011;70931;48.796;8.440;2024-01-10T07:49:06;15.93;;;6.80;;
81510;SDS011;70931;48.796;8.440;2024-01-10T07:51:31;15.02;;;7.15;;
81510;SDS011;70931;48.796;8.440;2024-01-10T07:53:56;16.13;;;6.87;;
81510;SDS011;70931;48.796;8.440;2024-01-10T07:56:21;15.27;;;6.63;;
81510;SDS011;70931;48.796;8.440;2024-01-10T07:58:47;18.73;;;6.97;;
81510;SDS011;70931;48.796;8.440;2024-01-10T08:01:12;13.43;;;7.07;;
81510;SDS011;70931;48.796;8.440;2024-01-10T08:03:38;15.20;;;6.03;;
81510;SDS011;70931;48.796;8.440;2024-01-10T08:06:03;15.00;;;6.53;;
81510;SDS011;70931;48.796;8.440;2024-01-10T08:08:28;13.33;;;6.80;;
81510;SDS011;70931;48.796;8.440;2024-01-10T08:10:54;16.37;;;8.13;;
81510;SDS011;70931;48.796;8.440;2024-01-10T08:13:20;21.73;;;8.25;;
81510;SDS011;70931;48.796;8.440;2024-01-10T08:15:45;17.07;;;7.33;;
81510;SDS011;70931;48.796;8.440;2024-01-10T08:18:11;15.83;;;7.17;;
81510;SDS011;70931;48.796;8.440;2024-01-10T08:20:36;16.90;;;6.27;;
81510;SDS011;70931;48.796;8.440;2024-01-10T08:23:01;16.63;;;7.40;;
81510;SDS011;70931;48.796;8.440;2024-01-10T08:25:27;16.67;;;6.03;;
81510;SDS011;70931;48.796;8.440;2024-01-10T08:27:52;13.87;;;6.77;;
81510;SDS011;70931;48.796;8.440;2024-01-10T08:30:17;18.00;;;7.83;;
81510;SDS011;70931;48.796;8.440;2024-01-10T08:32:42;15.33;;;6.87;;
81510;SDS011;70931;48.796;8.440;2024-01-10T08:35:08;17.27;;;7.20;;
81510;SDS011;70931;48.796;8.440;2024-01-10T08:37:33;11.70;;;5.80;;
81510;SDS011;70931;48.796;8.440;2024-01-10T08:39:58;18.17;;;8.90;;
81510;SDS011;70931;48.796;8.440;2024-01-10T08:42:23;17.43;;;6.90;;
81510;SDS011;70931;48.796;8.440;2024-01-10T08:44:48;15.13;;;7.47;;
81510;SDS011;70931;48.796;8.440;2024-01-10T08:47:14;19.27;;;7.67;;
81510;SDS011;70931;48.796;8.440;2024-01-10T08:49:39;18.10;;;7.30;;
81510;SDS011;70931;48.796;8.440;2024-01-10T08:52:04;18.73;;;7.93;;
81510;SDS011;70931;48.796;8.440;2024-01-10T08:54:30;17.23;;;7.43;;
81510;SDS011;70931;48.796;8.440;2024-01-10T08:56:55;16.67;;;7.67;;
81510;SDS011;70931;48.796;8.440;2024-01-10T08:59:20;22.23;;;7.20;;
81510;SDS011;70931;48.796;8.440;2024-01-10T09:01:45;20.30;;;7.37;;
81510;SDS011;70931;48.796;8.440;2024-01-10T09:04:11;16.53;;;6.73;;
81510;SDS011;70931;48.796;8.440;2024-01-10T09:06:36;15.90;;;7.80;;
81510;SDS011;70931;48.796;8.440;2024-01-10T09:09:01;15.67;;;6.93;;
81510;SDS011;70931;48.796;8.440;2024-01-10T09:11:26;13.93;;;6.70;;
81510;SDS011;70931;48.796;8.440;2024-01-10T09:13:52;17.83;;;7.87;;
81510;SDS011;70931;48.796;8.440;2024-01-10T09:16:17;12.80;;;6.07;;
81510;SDS011;70931;48.796;8.440;2024-01-10T09:18:42;16.90;;;7.43;;
81510;SDS011;70931;48.796;8.440;2024-01-10T09:21:08;16.83;;;6.70;;
81510;SDS011;70931;48.796;8.440;2024-01-10T09:23:33;16.00;;;7.57;;
81510;SDS011;70931;48.796;8.440;2024-01-10T09:25:58;15.13;;;6.57;;
81510;SDS011;70931;48.796;8.440;2024-01-10T09:28:23;12.83;;;7.20;;
81510;SDS011;70931;48.796;8.440;2024-01-10T09:30:49;15.70;;;7.13;;
81510;SDS011;70931;48.796;8.440;2024-01-10T09:33:14;13.50;;;6.93;;
81510;SDS011;70931;48.796;8.440;2024-01-10T09:35:39;14.27;;;7.35;;
81510;SDS011;70931;48.796;8.440;2024-01-10T09:38:04;18.13;;;7.97;;
81510;SDS011;70931;48.796;8.440;2024-01-10T09:40:30;17.73;;;8.57;;
81510;SDS011;70931;48.796;8.440;2024-01-10T09:42:55;17.40;;;7.30;;
81510;SDS011;70931;48.796;8.440;2024-01-10T09:45:20;16.93;;;7.07;;
81510;SDS011;70931;48.796;8.440;2024-01-10T09:47:48;16.58;;;8.23;;
81510;SDS011;70931;48.796;8.440;2024-01-10T09:50:14;14.95;;;8.27;;
81510;SDS011;70931;48.796;8.440;2024-01-10T09:53:14;17.42;;;7.35;;
81510;SDS011;70931;48.796;8.440;2024-01-10T09:55:34;16.58;;;7.82;;
81510;SDS011;70931;48.796;8.440;2024-01-10T09:58:06;18.50;;;7.82;;
81510;SDS011;70931;48.796;8.440;2024-01-10T10:00:33;15.50;;;7.55;;
81510;SDS011;70931;48.796;8.440;2024-01-10T10:02:59;14.13;;;6.93;;
81510;SDS011;70931;48.796;8.440;2024-01-10T10:05:26;15.60;;;7.35;;
81510;SDS011;70931;48.796;8.440;2024-01-10T10:07:52;19.50;;;8.80;;
81510;SDS011;70931;48.796;8.440;2024-01-10T10:10:17;16.33;;;6.82;;
81510;SDS011;70931;48.796;8.440;2024-01-10T10:12:49;15.30;;;7.30;;
81510;SDS011;70931;48.796;8.440;2024-01-10T10:15:16;13.73;;;7.03;;
81510;SDS011;70931;48.796;8.440;2024-01-10T10:17:44;15.50;;;6.75;;
81510;SDS011;70931;48.796;8.440;2024-01-10T10:20:10;18.52;;;9.20;;
81510;SDS011;70931;48.796;8.440;2024-01-10T10:22:36;16.27;;;7.30;;
81510;SDS011;70931;48.796;8.440;2024-01-10T10:25:01;15.30;;;6.93;;
81510;SDS011;70931;48.796;8.440;2024-01-10T10:27:26;17.85;;;7.35;;
81510;SDS011;70931;48.796;8.440;2024-01-10T10:29:51;17.90;;;7.93;;
81510;SDS011;70931;48.796;8.440;2024-01-10T10:32:17;18.13;;;7.80;;
81510;SDS011;70931;48.796;8.440;2024-01-10T10:34:42;16.87;;;7.67;;
81510;SDS011;70931;48.796;8.440;2024-01-10T10:37:07;20.30;;;8.00;;
81510;SDS011;70931;48.796;8.440;2024-01-10T10:39:32;15.97;;;7.93;;
81510;SDS011;70931;48.796;8.440;2024-01-10T10:41:58;13.80;;;7.47;;
81510;SDS011;70931;48.796;8.440;2024-01-10T10:44:25;15.52;;;7.72;;
81510;SDS011;70931;48.796;8.440;2024-01-10T10:46:53;15.15;;;8.30;;
81510;SDS011;70931;48.796;8.440;2024-01-10T10:49:22;15.40;;;7.40;;
81510;SDS011;70931;48.796;8.440;2024-01-10T10:51:53;19.50;;;8.73;;
81510;SDS011;70931;48.796;8.440;2024-01-10T10:54:22;17.10;;;8.40;;
81510;SDS011;70931;48.796;8.440;2024-01-10T10:56:48;17.17;;;8.75;;
81510;SDS011;70931;48.796;8.440;2024-01-10T10:59:16;16.35;;;8.52;;
81510;SDS011;70931;48.796;8.440;2024-01-10T11:01:46;17.83;;;7.55;;
81510;SDS011;70931;48.796;8.440;2024-01-10T11:04:11;16.27;;;7.65;;
81510;SDS011;70931;48.796;8.440;2024-01-10T11:06:37;15.45;;;7.53;;
81510;SDS011;70931;48.796;8.440;2024-01-10T11:09:04;17.50;;;9.10;;
81510;SDS011;70931;48.796;8.440;2024-01-10T11:14:24;16.83;;;8.02;;
81510;SDS011;70931;48.796;8.440;2024-01-10T11:24:30;16.13;;;8.27;;
81510;SDS011;70931;48.796;8.440;2024-01-10T11:27:06;14.60;;;7.68;;
81510;SDS011;70931;48.796;8.440;2024-01-10T11:29:41;17.58;;;8.57;;
81510;SDS011;70931;48.796;8.440;2024-01-10T11:32:16;19.17;;;9.63;;
81510;SDS011;70931;48.796;8.440;2024-01-10T11:34:55;18.30;;;9.48;;
81510;SDS011;70931;48.796;8.440;2024-01-10T11:37:20;20.45;;;10.50;;
81510;SDS011;70931;48.796;8.440;2024-01-10T11:39:46;18.50;;;9.82;;
81510;SDS011;70931;48.796;8.440;2024-01-10T11:42:11;21.27;;;10.63;;
81510;SDS011;70931;48.796;8.440;2024-01-10T11:44:49;18.48;;;9.77;;
81510;SDS011;70931;48.796;8.440;2024-01-10T11:47:15;23.23;;;11.38;;
81510;SDS011;70931;48.796;8.440;2024-01-10T11:49:41;19.95;;;10.20;;
81510;SDS011;70931;48.796;8.440;2024-01-10T11:52:18;19.40;;;10.27;;
81510;SDS011;70931;48.796;8.440;2024-01-10T11:54:46;19.70;;;11.35;;
81510;SDS011;70931;48.796;8.440;2024-01-10T11:57:18;18.20;;;10.33;;
81510;SDS011;70931;48.796;8.440;2024-01-10T11:59:44;19.45;;;10.85;;
81510;SDS011;70931;48.796;8.440;2024-01-10T12:02:10;20.00;;;11.02;;
81510;SDS011;70931;48.796;8.440;2024-01-10T12:04:36;19.05;;;10.05;;
81510;SDS011;70931;48.796;8.440;2024-01-10T12:07:02;18.97;;;10.87;;
81510;SDS011;70931;48.796;8.440;2024-01-10T12:09:28;17.15;;;10.00;;
81510;SDS011;70931;48.796;8.440;2024-01-10T12:11:53;22.57;;;11.70;;
81510;SDS011;70931;48.796;8.440;2024-01-10T12:14:19;20.75;;;11.23;;
81510;SDS011;70931;48.796;8.440;2024-01-10T12:16:44;21.65;;;11.50;;
81510;SDS011;70931;48.796;8.440;2024-01-10T12:19:09;20.90;;;11.40;;
81510;SDS011;70931;48.796;8.440;2024-01-10T12:21:34;19.23;;;11.10;;
81510;SDS011;70931;48.796;8.440;2024-01-10T12:24:00;20.80;;;11.60;;
81510;SDS011;70931;48.796;8.440;2024-01-10T12:26:25;22.47;;;11.20;;
81510;SDS011;70931;48.796;8.440;2024-01-10T12:28:54;20.50;;;11.03;;
81510;SDS011;70931;48.796;8.440;2024-01-10T12:31:20;18.30;;;11.15;;
81510;SDS011;70931;48.796;8.440;2024-01-10T12:33:45;20.00;;;10.33;;
81510;SDS011;70931;48.796;8.440;2024-01-10T12:36:12;19.20;;;11.25;;
81510;SDS011;70931;48.796;8.440;2024-01-10T12:38:37;18.40;;;10.43;;
81510;SDS011;70931;48.796;8.440;2024-01-10T12:41:04;18.27;;;11.13;;
81510;SDS011;70931;48.796;8.440;2024-01-10T12:43:30;23.60;;;12.68;;
81510;SDS011;70931;48.796;8.440;2024-01-10T12:46:08;19.38;;;9.50;;
81510;SDS011;70931;48.796;8.440;2024-01-10T12:48:38;19.27;;;10.18;;
81510;SDS011;70931;48.796;8.440;2024-01-10T12:51:04;20.63;;;10.63;;
81510;SDS011;70931;48.796;8.440;2024-01-10T12:53:29;22.30;;;11.83;;
81510;SDS011;70931;48.796;8.440;2024-01-10T12:55:55;21.30;;;10.63;;
81510;SDS011;70931;48.796;8.440;2024-01-10T12:58:20;21.90;;;11.07;;
81510;SDS011;70931;48.796;8.440;2024-01-10T13:00:46;21.73;;;11.37;;
81510;SDS011;70931;48.796;8.440;2024-01-10T13:03:11;21.17;;;10.30;;
81510;SDS011;70931;48.796;8.440;2024-01-10T13:05:36;22.02;;;11.48;;
81510;SDS011;70931;48.796;8.440;2024-01-10T13:08:02;17.97;;;10.37;;
81510;SDS011;70931;48.796;8.440;2024-01-10T13:10:27;19.42;;;10.73;;
81510;SDS011;70931;48.796;8.440;2024-01-10T13:12:52;24.13;;;11.50;;
81510;SDS011;70931;48.796;8.440;2024-01-10T13:15:18;21.77;;;11.60;;
81510;SDS011;70931;48.796;8.440;2024-01-10T13:17:43;19.87;;;10.60;;
81510;SDS011;70931;48.796;8.440;2024-01-10T13:20:08;24.53;;;11.33;;
81510;SDS011;70931;48.796;8.440;2024-01-10T13:22:34;18.88;;;10.38;;
81510;SDS011;70931;48.796;8.440;2024-01-10T13:24:59;22.73;;;10.97;;
81510;SDS011;70931;48.796;8.440;2024-01-10T13:27:24;22.23;;;11.97;;
81510;SDS011;70931;48.796;8.440;2024-01-10T13:29:50;25.20;;;13.23;;
81510;SDS011;70931;48.796;8.440;2024-01-10T13:32:15;23.77;;;11.73;;
81510;SDS011;70931;48.796;8.440;2024-01-10T13:34:40;24.63;;;12.17;;
81510;SDS011;70931;48.796;8.440;2024-01-10T13:37:05;22.60;;;11.27;;
81510;SDS011;70931;48.796;8.440;2024-01-10T13:39:32;22.70;;;11.02;;
81510;SDS011;70931;48.796;8.440;2024-01-10T13:41:57;19.97;;;10.47;;
81510;SDS011;70931;48.796;8.440;2024-01-10T13:44:22;23.87;;;11.63;;
81510;SDS011;70931;48.796;8.440;2024-01-10T13:46:47;23.77;;;11.33;;
81510;SDS011;70931;48.796;8.440;2024-01-10T13:49:13;21.37;;;11.50;;
81510;SDS011;70931;48.796;8.440;2024-01-10T13:51:38;18.27;;;10.47;;
81510;SDS011;70931;48.796;8.440;2024-01-10T13:54:03;22.43;;;10.37;;
81510;SDS011;70931;48.796;8.440;2024-01-10T13:56:28;21.37;;;10.80;;
81510;SDS011;70931;48.796;8.440;2024-01-10T13:58:54;21.50;;;11.43;;
81510;SDS011;70931;48.796;8.440;2024-01-10T14:01:19;20.73;;;10.53;;
81510;SDS011;70931;48.796;8.440;2024-01-10T14:03:44;22.60;;;11.80;;
81510;SDS011;70931;48.796;8.440;2024-01-10T14:06:09;23.80;;;11.47;;
81510;SDS011;70931;48.796;8.440;2024-01-10T14:08:34;22.30;;;11.57;;
81510;SDS011;70931;48.796;8.440;2024-01-10T14:11:00;26.07;;;12.37;;
81510;SDS011;70931;48.796;8.440;2024-01-10T14:13:25;21.13;;;11.07;;
81510;SDS011;70931;48.796;8.440;2024-01-10T14:15:50;21.60;;;12.17;;
81510;SDS011;70931;48.796;8.440;2024-01-10T14:18:16;24.92;;;12.68;;
81510;SDS011;70931;48.796;8.440;2024-01-10T14:20:41;25.02;;;12.50;;
81510;SDS011;70931;48.796;8.440;2024-01-10T14:23:07;25.88;;;12.20;;
81510;SDS011;70931;48.796;8.440;2024-01-10T14:25:39;30.20;;;13.95;;
81510;SDS011;70931;48.796;8.440;2024-01-10T14:28:04;25.30;;;12.77;;
81510;SDS011;70931;48.796;8.440;2024-01-10T14:30:30;21.73;;;11.55;;
81510;SDS011;70931;48.796;8.440;2024-01-10T14:32:55;22.95;;;12.02;;
81510;SDS011;70931;48.796;8.440;2024-01-10T14:35:21;23.88;;;11.95;;
81510;SDS011;70931;48.796;8.440;2024-01-10T14:37:46;24.33;;;11.50;;
81510;SDS011;70931;48.796;8.440;2024-01-10T14:40:12;20.47;;;11.57;;